Flight Track Log - Related Links

Times and Time Zones

All times are in EDT time to prevent confusion due to time zone crossing. See the UAL33 flight status page for this flight to view local times or setup timezone preferences in your user account.

Time Position Orientation Groundspeed Altitude Reporting Facility
EDT Latitude Longitude Course Direction KTS MPH feet Rate Location/Type
Thu 09:42:50 PM 41.9790 -87.9120 351° North 11 13  Level FlightAware ADS-B
Thu 09:43:14 PM 41.9800 -87.9120 360° North 12 14 120 Level FlightAware ADS-B
Thu 09:43:58 PM 41.9810 -87.9120 360° North 18 21 127 Level FlightAware ADS-B
Thu 09:44:24 PM 41.9810 -87.9130 270° West 24 28 141 Level FlightAware ADS-B
Thu 09:44:42 PM 41.9800 -87.9130 180° South 22 25 152 Level FlightAware ADS-B
Thu 09:45:41 PM 41.9780 -87.9130 180° South 25 29 160 Level FlightAware ADS-B
Thu 09:46:08 PM 41.9760 -87.9130 180° South 25 29 194 Level FlightAware ADS-B
Thu 09:48:00 PM 41.7731 -87.9385 200° South  Level FlightAware Approximate
Thu 09:49:00 PM 41.6704 -87.9688 187° South  Level FlightAware Approximate
Thu 09:49:52 PM 41.9750 -87.9160 187° South 88 101  Level FlightAware ADS-B
Thu 09:50:20 PM 41.9890 -87.9320 320° Northwest 163 188 900 2,421 Climbing FlightAware ADS-B
Thu 09:50:49 PM 42.0080 -87.9460 331° Northwest 167 192 2,300 2,520 Climbing FlightAware ADS-B
Thu 09:51:10 PM 42.0230 -87.9340 31° Northeast 205 236 3,000 2,182 Climbing FlightAware ADS-B
Thu 09:51:22 PM 42.0270 -87.9180 71° East 236 272 3,500 1,920 Climbing FlightAware ADS-B
Thu 09:52:00 PM 42.0140 -87.8730 111° Southeast 290 334 4,600 2,947 Climbing FlightAware ADS-B
Thu 09:52:19 PM 41.9790 -87.8560 160° South 297 342 6,300 4,468 Climbing FlightAware ADS-B
Thu 09:52:47 PM 41.9420 -87.8650 190° South 301 346 8,100 3,692 Climbing FlightAware ADS-B
Thu 09:53:11 PM 41.9100 -87.8720 189° South 310 357 9,500 3,176 Climbing FlightAware ADS-B
Thu 09:53:55 PM 41.8420 -87.8930 193° South 348 400 11,700 3,241 Climbing FlightAware ADS-B
Thu 09:54:38 PM 41.7720 -87.9150 193° South 363 418 14,200 2,458 Climbing FlightAware ADS-B
Thu 09:55:18 PM 41.7080 -87.9350 193° South 364 419 15,100 868 Climbing FlightAware ADS-B
Thu 09:55:54 PM 41.6950 -87.9390 193° South 373 429 15,300 3,108 Climbing FlightAware ADS-B
Thu 09:56:41 PM 41.5640 -87.9810 193° South 402 463 19,400 4,129 Climbing FlightAware ADS-B
Thu 09:57:27 PM 41.4790 -88.0070 193° South 419 482 21,700 2,930 Climbing FlightAware ADS-B
Thu 09:58:07 PM 41.4010 -88.0320 194° South 432 497 23,600 2,810 Climbing FlightAware ADS-B
Thu 09:58:46 PM 41.3250 -88.0570 194° South 440 506 25,400 2,500 Climbing FlightAware ADS-B
Thu 09:59:31 PM 41.2390 -88.0870 195° South 458 527 27,100 2,372 Climbing FlightAware ADS-B
Thu 10:00:12 PM 41.1490 -88.1130 192° South 471 542 28,800 2,023 Climbing FlightAware ADS-B
Thu 10:00:57 PM 41.0540 -88.1400 192° South 493 567 30,000 1,735 Climbing FlightAware ADS-B
Thu 10:01:35 PM 40.9630 -88.1650 192° South 508 585 31,200 1,870 Climbing FlightAware ADS-B
Thu 10:02:14 PM 40.8740 -88.1920 193° South 514 592 32,400 1,841 Climbing FlightAware ADS-B
Thu 10:03:03 PM 40.7710 -88.2470 202° Southwest 494 568 33,900 1,733 Climbing FlightAware ADS-B
Thu 10:03:44 PM 40.6860 -88.3070 208° Southwest 505 581 35,000 1,735 Climbing FlightAware ADS-B
Thu 10:04:26 PM 40.5990 -88.3680 208° Southwest 504 580 36,300 2,096 Climbing FlightAware ADS-B
Thu 10:05:07 PM 40.5130 -88.4290 208° Southwest 495 570 37,900 1,926 Climbing FlightAware ADS-B
Thu 10:05:47 PM 40.4360 -88.4830 208° Southwest 491 565 38,900 1,395 Climbing FlightAware ADS-B
Thu 10:06:33 PM 40.3410 -88.5490 208° Southwest 491 565 39,900 767 Climbing FlightAware ADS-B
Thu 10:07:13 PM 40.2600 -88.6060 208° Southwest 493 567 40,000 74 Climbing FlightAware ADS-B
Thu 10:07:54 PM 40.1810 -88.6620 208° Southwest 494 568 40,000  Level FlightAware ADS-B
Thu 10:08:36 PM 40.0930 -88.7220 208° Southwest 498 573 40,000  Level FlightAware ADS-B
Thu 10:09:20 PM 40.0060 -88.7830 208° Southwest 497 572 40,000  Level FlightAware ADS-B
Thu 10:10:02 PM 39.9190 -88.8430 208° Southwest 494 568 40,000  Level FlightAware ADS-B
Thu 10:10:45 PM 39.8310 -88.9040 208° Southwest 490 564 40,000  Level FlightAware ADS-B
Thu 10:11:43 PM 39.7290 -88.9720 207° Southwest 490 564 40,000  Level FlightAware ADS-B
Thu 10:12:21 PM 39.6380 -89.0360 208° Southwest 492 566 40,000  Level FlightAware ADS-B
Thu 10:13:05 PM 39.5540 -89.0940 208° Southwest 493 567 40,000  Level FlightAware ADS-B
Thu 10:13:45 PM 39.4700 -89.1500 207° Southwest 493 567 40,000  Level FlightAware ADS-B
Thu 10:14:29 PM 39.3810 -89.2110 208° Southwest 493 567 40,000  Level FlightAware ADS-B
Thu 10:15:38 PM 39.3070 -89.2610 208° Southwest 492 566 40,000  Level FlightAware ADS-B
Thu 10:15:47 PM 39.2660 -89.2890 208° Southwest 492 566 40,000  Level FlightAware ADS-B
Thu 10:18:18 PM 38.9520 -89.5000 208° Southwest 495 570 40,000  Level FlightAware ADS-B
Thu 10:19:07 PM 38.8200 -89.5880 207° Southwest 491 565 40,000  Level FlightAware ADS-B
Thu 10:19:47 PM 38.7390 -89.6420 207° Southwest 488 562 40,000  Level FlightAware ADS-B
Thu 10:20:31 PM 38.6510 -89.7010 208° Southwest 487 560 40,000  Level FlightAware ADS-B
Thu 10:21:12 PM 38.5770 -89.7490 207° Southwest 487 560 40,000  Level FlightAware ADS-B
Thu 10:21:54 PM 38.4880 -89.8080 207° Southwest 488 562 40,000  Level FlightAware ADS-B
Thu 10:22:36 PM 38.4100 -89.8590 207° Southwest 488 562 40,000  Level FlightAware ADS-B
Thu 10:23:31 PM 38.2900 -89.9380 207° Southwest 489 563 40,000  Level FlightAware ADS-B
Thu 10:24:15 PM 38.2000 -89.9970 207° Southwest 489 563 40,000  Level FlightAware ADS-B
Thu 10:25:11 PM 38.0960 -90.0640 207° Southwest 487 560 40,000  Level FlightAware ADS-B
Thu 10:25:53 PM 38.0060 -90.1230 207° Southwest 484 557 40,000  Level FlightAware ADS-B
Thu 10:26:31 PM 37.9360 -90.1690 207° Southwest 484 557 40,000  Level FlightAware ADS-B
Thu 10:27:09 PM 37.8540 -90.2210 207° Southwest 477 549 40,000  Level FlightAware ADS-B
Thu 10:27:59 PM 37.7670 -90.2780 207° Southwest 476 548 40,000  Level FlightAware ADS-B
Thu 10:28:35 PM 37.7070 -90.3170 207° Southwest 476 548 40,000  Level FlightAware ADS-B
Thu 10:29:23 PM 37.6270 -90.3680 207° Southwest 476 548 40,000  Level FlightAware ADS-B
Thu 10:29:59 PM 37.5670 -90.4070 207° Southwest 476 548 40,000  Level FlightAware ADS-B
Thu 10:30:11 PM 37.5470 -90.4200 207° Southwest 476 548 40,000  Level FlightAware ADS-B
Thu 10:31:26 PM 37.3540 -90.5420 207° Southwest 466 536 40,000  Level FlightAware ADS-B
Thu 10:32:10 PM 37.2700 -90.5960 207° Southwest 464 534 40,000  Level FlightAware ADS-B
Thu 10:32:52 PM 37.1890 -90.6470 207° Southwest 465 535 40,000  Level FlightAware ADS-B
Thu 10:33:30 PM 37.1160 -90.6930 207° Southwest 467 537 40,000  Level FlightAware ADS-B
Thu 10:34:16 PM 37.0270 -90.7490 207° Southwest 468 539 40,000  Level FlightAware ADS-B
Thu 10:34:58 PM 36.9460 -90.8000 207° Southwest 467 537 40,000  Level FlightAware ADS-B
Thu 10:36:01 PM 36.8260 -90.8760 207° Southwest 461 531 40,000  Level FlightAware ADS-B
Thu 10:36:45 PM 36.7410 -90.9280 206° Southwest 458 527 40,000  Level FlightAware ADS-B
Thu 10:37:25 PM 36.6670 -90.9750 207° Southwest 455 524 40,000  Level FlightAware ADS-B
Thu 10:38:01 PM 36.5980 -91.0180 207° Southwest 453 521 40,000  Level FlightAware ADS-B
Thu 10:38:51 PM 36.5040 -91.0760 206° Southwest 448 516 40,000  Level FlightAware ADS-B
Thu 10:39:29 PM 36.4350 -91.1190 207° Southwest 450 518 40,000  Level FlightAware ADS-B
Thu 10:40:15 PM 36.3500 -91.1720 207° Southwest 449 517 40,000  Level FlightAware ADS-B
Thu 10:43:40 PM 36.2320 -91.2440 206° Southwest 450 518 40,000  Level FlightAware ADS-B
Thu 10:44:21 PM 35.8910 -91.4540 207° Southwest 450 518 40,000  Level FlightAware ADS-B
Thu 10:45:03 PM 35.8110 -91.5020 206° Southwest 450 518 40,000  Level FlightAware ADS-B
Thu 10:45:37 PM 35.7510 -91.5380 206° Southwest 450 518 40,000  Level FlightAware ADS-B
Thu 10:46:24 PM 35.6760 -91.5830 206° Southwest 450 518 40,000  Level FlightAware ADS-B
Thu 10:47:06 PM 35.6090 -91.6230 206° Southwest 450 518 40,000  Level FlightAware ADS-B
Thu 10:47:46 PM 35.5050 -91.6840 206° Southwest 460 529 40,000  Level FlightAware ADS-B
Thu 10:48:31 PM 35.4240 -91.7170 198° South 461 531 40,000  Level FlightAware ADS-B
Thu 10:49:09 PM 35.3580 -91.7430 198° South 461 531 40,000  Level FlightAware ADS-B
Thu 10:49:28 PM 35.2910 -91.7240 167° South 470 541 40,000  Level FlightAware ADS-B
Thu 10:50:13 PM 35.2040 -91.7220 179° South 470 541 40,000  Level FlightAware ADS-B
Thu 10:50:52 PM 35.1320 -91.7200 179° South 470 541 40,000  Level FlightAware ADS-B
Thu 10:51:28 PM 35.0660 -91.7190 179° South 470 541 40,000  Level FlightAware ADS-B
Thu 10:52:17 PM 34.9750 -91.7170 179° South 470 541 40,000  Level FlightAware ADS-B
Thu 10:52:54 PM 34.9070 -91.7150 179° South 470 541 40,000  Level FlightAware ADS-B
Thu 10:53:43 PM 34.8160 -91.7130 179° South 470 541 40,000  Level FlightAware ADS-B
Thu 10:54:18 PM 34.7520 -91.7120 179° South 470 541 40,000  Level FlightAware ADS-B
Thu 10:55:12 PM 34.6520 -91.7100 179° South 470 541 40,000  Level FlightAware ADS-B
Thu 10:55:57 PM 34.5690 -91.7080 179° South 470 541 40,000  Level FlightAware ADS-B
Thu 10:56:44 PM 34.4820 -91.7060 179° South 470 541 40,000  Level FlightAware ADS-B
Thu 10:57:18 PM 34.4190 -91.7050 179° South 470 541 40,000  Level FlightAware ADS-B
Thu 10:58:06 PM 34.3300 -91.7030 179° South 470 541 40,000  Level FlightAware ADS-B
Thu 10:58:42 PM 34.2640 -91.7020 179° South 470 541 40,000  Level FlightAware ADS-B
Thu 10:59:32 PM 34.1710 -91.7000 179° South 470 541 40,000  Level FlightAware ADS-B
Thu 11:00:44 PM 33.8708 -92.0833 179° South 461 531 40,000  Level Memphis Center
Thu 11:02:13 PM 33.6994 -92.1358 194° South 459 528 40,000  Level Fort Worth Center
Thu 11:03:13 PM 33.5614 -92.1814 195° South 459 528 40,000  Level Fort Worth Center
Thu 11:04:13 PM 33.4378 -92.2211 195° South 464 534 40,000  Level Fort Worth Center
Thu 11:05:13 PM 33.3142 -92.2583 194° South 470 541 40,000  Level Fort Worth Center
Thu 11:06:13 PM 33.1886 -92.3003 196° South 470 541 40,000  Level Fort Worth Center
Thu 11:11:44 PM 32.4939 -92.5165 196° South 463 533 40,000  Level FlightAware ADS-B
Thu 11:12:46 PM 32.3641 -92.5568 195° South 461 531 40,000  Level FlightAware ADS-B
Thu 11:14:17 PM 32.1827 -92.6360 200° South 473 544 40,000  Level FlightAware ADS-B
Thu 11:14:47 PM 32.1293 -92.6840 217° Southwest 485 558 40,000  Level FlightAware ADS-B
Thu 11:15:19 PM 32.0730 -92.7342 217° Southwest 491 565 40,000  Level FlightAware ADS-B
Thu 11:15:51 PM 32.0145 -92.7862 217° Southwest 492 566 40,000  Level FlightAware ADS-B
Thu 11:16:22 PM 31.9577 -92.8366 217° Southwest 494 568 40,000  Level FlightAware ADS-B
Thu 11:17:10 PM 31.8698 -92.9146 217° Southwest 494 568 40,000  Level FlightAware ADS-B
Thu 11:17:41 PM 31.8144 -92.9636 217° Southwest 485 558 40,000  Level FlightAware ADS-B
Thu 11:18:15 PM 31.7544 -93.0166 217° Southwest 477 549 40,000 -2,481 Level FlightAware ADS-B
Thu 11:21:38 PM 31.3795 -93.3457 217° Southwest 483 556 30,200 -2,833 Descending FlightAware ADS-B
Thu 11:22:08 PM 31.3255 -93.3926 217° Southwest 475 547 29,000 -2,066 Descending FlightAware ADS-B
Thu 11:22:39 PM 31.2728 -93.4385 217° Southwest 466 536 28,100 -1,574 Descending FlightAware ADS-B
Thu 11:23:09 PM 31.2211 -93.4839 217° Southwest 458 527 27,400 -1,200 Descending FlightAware ADS-B
Thu 11:23:39 PM 31.1701 -93.5283 217° Southwest 457 526 26,900 -1,100 Descending FlightAware ADS-B
Thu 11:24:09 PM 31.1187 -93.5729 217° Southwest 455 524 26,300 -1,029 Descending FlightAware ADS-B
Thu 11:24:49 PM 31.0515 -93.6313 217° Southwest 449 517 25,700 -857 Descending FlightAware ADS-B
Thu 11:25:19 PM 31.0017 -93.6743 217° Southwest 444 511 25,300 -774 Descending FlightAware ADS-B
Thu 11:25:51 PM 30.9505 -93.7185 217° Southwest 439 505 24,900 -871 Descending FlightAware ADS-B
Thu 11:26:21 PM 30.9011 -93.7611 217° Southwest 436 502 24,400 -900 Descending FlightAware ADS-B
Thu 11:26:51 PM 30.8527 -93.8029 217° Southwest 432 497 24,000 -400 Descending FlightAware ADS-B
Thu 11:27:21 PM 30.8038 -93.8449 216° Southwest 431 496 24,000 -100 Level FlightAware ADS-B
Thu 11:27:51 PM 30.7555 -93.8864 216° Southwest 432 497 23,900 -1,082 Descending FlightAware ADS-B
Thu 11:28:22 PM 30.7057 -93.9292 216° Southwest 430 495 22,900 -2,032 Descending FlightAware ADS-B
Thu 11:28:53 PM 30.6567 -93.9713 216° Southwest 425 489 21,800 -2,152 Descending FlightAware ADS-B
Thu 11:29:54 PM 30.5609 -94.0533 216° Southwest 415 478 19,600 -2,164 Descending FlightAware ADS-B
Thu 11:30:55 PM 30.4688 -94.1318 216° Southwest 407 468 17,400 -2,174 Descending FlightAware ADS-B
Thu 11:31:03 PM 30.4557 -94.1434 217° Southwest 406 467 17,100 -2,143 Descending FlightAware ADS-B
Thu 11:31:23 PM 30.4292 -94.1742 228° Southwest 404 465 16,400 -2,000 Descending FlightAware ADS-B
Thu 11:31:30 PM 30.4214 -94.1862 233° Southwest 402 463 16,200 -1,765 Descending FlightAware ADS-B
Thu 11:31:40 PM 30.4114 -94.2043 237° Southwest 400 460 15,900 -2,028 Descending FlightAware ADS-B
Thu 11:32:41 PM 30.3594 -94.3172 242° Southwest 387 445 13,800 -2,281 Descending FlightAware ADS-B
Thu 11:33:41 PM 30.3096 -94.4247 242° Southwest 365 420 11,300 -1,884 Descending FlightAware ADS-B
Thu 11:34:42 PM 30.2656 -94.5200 242° Southwest 319 367 10,000 -1,263 Descending FlightAware ADS-B
Thu 11:34:57 PM 30.2550 -94.5427 242° Southwest 317 365 9,700 -1,200 Descending FlightAware ADS-B
Thu 11:35:42 PM 30.2240 -94.6090 241° Southwest 302 348 8,800 -1,180 Descending FlightAware ADS-B
Thu 11:35:58 PM 30.2135 -94.6317 242° Southwest 293 337 8,500 -1,043 Descending FlightAware ADS-B
Thu 11:36:28 PM 30.1946 -94.6726 242° Southwest 286 329 8,000 -1,000 Descending FlightAware ADS-B
Thu 11:36:58 PM 30.1765 -94.7117 242° Southwest 274 315 7,500 -1,034 Descending FlightAware ADS-B
Thu 11:37:55 PM 30.1411 -94.7872 242° Southwest 286 329 6,500 -1,043 Descending FlightAware ADS-B
Thu 11:38:30 PM 30.1195 -94.8333 242° Southwest 283 326 5,900 -1,111 Descending FlightAware ADS-B
Thu 11:39:16 PM 30.0909 -94.8943 241° Southwest 280 322 5,000 -1,091 Descending FlightAware ADS-B
Thu 11:39:47 PM 30.0721 -94.9348 242° Southwest 277 319 4,500 -1,021 Descending FlightAware ADS-B
Thu 11:40:03 PM 30.0624 -94.9553 241° Southwest 275 316 4,200 -682 Descending FlightAware ADS-B
Thu 11:41:15 PM 30.0201 -95.0453 241° Southwest 250 288 3,500 -607 Descending FlightAware ADS-B
Thu 11:41:32 PM 30.0108 -95.0649 241° Southwest 242 278 3,300 -563 Descending FlightAware ADS-B
Thu 11:41:47 PM 30.0030 -95.0815 242° Southwest 233 268 3,200 -400 Descending FlightAware ADS-B
Thu 11:42:17 PM 29.9879 -95.1135 241° Southwest 218 251 3,000 -400 Descending FlightAware ADS-B
Thu 11:42:32 PM 29.9809 -95.1285 243° Southwest 208 239 2,900 -333 Descending FlightAware ADS-B
Thu 11:42:35 PM 29.9798 -95.1315 247° West 206 237 2,900 -800 Level FlightAware ADS-B
Thu 11:42:47 PM 29.9777 -95.1440 264° West 206 237 2,700 -1,071 Descending FlightAware ADS-B
Thu 11:43:03 PM 29.9775 -95.1621 270° West 206 237 2,400 -1,071 Descending FlightAware ADS-B
Thu 11:43:15 PM 29.9775 -95.1743 270° West 198 228 2,200 -1,034 Descending FlightAware ADS-B
Thu 11:43:32 PM 29.9775 -95.1913 270° West 185 213 1,900 -1,034 Descending FlightAware ADS-B
Thu 11:43:44 PM 29.9776 -95.2026 271° West 171 197 1,700 -889 Descending FlightAware ADS-B
Thu 11:43:59 PM 29.9776 -95.2158 270° West 161 185 1,500 -909 Descending FlightAware ADS-B
Thu 11:44:17 PM 29.9776 -95.2301 270° West 139 160 1,200 -706 Descending FlightAware ADS-B
Thu 11:44:33 PM 29.9776 -95.2410 270° West 133 153 1,100 -522 Descending FlightAware ADS-B
Thu 11:44:40 PM 29.9776 -95.2464 270° West 132 152 1,000 -857 Descending FlightAware ADS-B
Thu 11:44:47 PM 29.9776 -95.2513 270° West 132 152 900 -600 Descending FlightAware ADS-B
Thu 11:45:00 PM 29.9776 -95.2606 270° West 134 154 800 -600 Descending FlightAware ADS-B
Thu 11:45:07 PM 29.9777 -95.2656 271° West 134 154 700 -818 Descending FlightAware ADS-B
Thu 11:45:22 PM 29.9776 -95.2765 269° West 136 157 500 -818 Descending FlightAware ADS-B
Thu 11:45:29 PM 29.9776 -95.2814 270° West 136 157 400 -800 Descending FlightAware ADS-B
Thu 11:45:37 PM 29.9776 -95.2868 270° West 136 157 300 -545 Descending FlightAware ADS-B
Thu 11:45:51 PM 29.9776 -95.2970 270° West 137 158 200 -429 Descending FlightAware ADS-B

Login

Don't have an account? Register now (free) for customized features, flight alerts, and more!